sensor_id;sensor_type;location;lat;lon;timestamp;pressure;altitude;pressure_sealevel;temperature;humidity
15817;BME280;8009;50.070;8.232;2023-11-21T00:00:00;99264.66;;;12.15;75.98
15817;BME280;8009;50.070;8.232;2023-11-21T00:02:30;99259.09;;;12.26;75.63
15817;BME280;8009;50.070;8.232;2023-11-21T00:04:58;99266.63;;;12.23;75.90
15817;BME280;8009;50.070;8.232;2023-11-21T00:07:32;99269.50;;;12.02;77.37
15817;BME280;8009;50.070;8.232;2023-11-21T00:13:13;99261.94;;;12.05;76.45
15817;BME280;8009;50.070;8.232;2023-11-21T00:15:42;99268.66;;;11.91;76.60
15817;BME280;8009;50.070;8.232;2023-11-21T00:18:10;99272.75;;;12.25;75.79
15817;BME280;8009;50.070;8.232;2023-11-21T00:20:39;99269.50;;;12.11;76.73
15817;BME280;8009;50.070;8.232;2023-11-21T00:23:07;99260.13;;;12.06;77.75
15817;BME280;8009;50.070;8.232;2023-11-21T00:25:40;99260.25;;;11.85;77.22
15817;BME280;8009;50.070;8.232;2023-11-21T00:34:45;99271.22;;;12.03;76.91
15817;BME280;8009;50.070;8.232;2023-11-21T00:37:14;99270.50;;;12.10;76.36
15817;BME280;8009;50.070;8.232;2023-11-21T00:39:42;99274.50;;;12.06;76.68
15817;BME280;8009;50.070;8.232;2023-11-21T00:42:11;99270.91;;;12.15;76.59
15817;BME280;8009;50.070;8.232;2023-11-21T00:44:39;99266.22;;;12.17;76.33
15817;BME280;8009;50.070;8.232;2023-11-21T00:47:08;99262.38;;;12.10;76.22
15817;BME280;8009;50.070;8.232;2023-11-21T00:49:36;99269.63;;;11.90;77.44
15817;BME280;8009;50.070;8.232;2023-11-21T00:52:07;99271.44;;;11.70;77.97
15817;BME280;8009;50.070;8.232;2023-11-21T00:54:36;99274.31;;;11.69;78.34
15817;BME280;8009;50.070;8.232;2023-11-21T00:57:04;99269.91;;;11.68;78.29
15817;BME280;8009;50.070;8.232;2023-11-21T00:59:34;99271.31;;;11.62;78.65
15817;BME280;8009;50.070;8.232;2023-11-21T01:02:04;99275.00;;;11.71;78.54
15817;BME280;8009;50.070;8.232;2023-11-21T01:04:57;99273.47;;;11.68;78.30
15817;BME280;8009;50.070;8.232;2023-11-21T01:07:30;99271.72;;;11.67;78.55
15817;BME280;8009;50.070;8.232;2023-11-21T01:16:22;99283.84;;;11.83;78.18
15817;BME280;8009;50.070;8.232;2023-11-21T01:18:50;99283.41;;;11.78;78.00
15817;BME280;8009;50.070;8.232;2023-11-21T01:21:18;99292.84;;;11.93;77.47
15817;BME280;8009;50.070;8.232;2023-11-21T01:23:49;99287.97;;;11.77;78.23
15817;BME280;8009;50.070;8.232;2023-11-21T01:26:18;99290.16;;;11.83;77.61
15817;BME280;8009;50.070;8.232;2023-11-21T01:28:46;99291.00;;;11.84;77.79
15817;BME280;8009;50.070;8.232;2023-11-21T01:31:15;99299.97;;;11.94;76.92
15817;BME280;8009;50.070;8.232;2023-11-21T01:33:44;99297.28;;;12.04;76.84
15817;BME280;8009;50.070;8.232;2023-11-21T01:36:14;99301.41;;;12.08;76.74
15817;BME280;8009;50.070;8.232;2023-11-21T01:38:42;99303.69;;;12.03;76.64
15817;BME280;8009;50.070;8.232;2023-11-21T01:41:13;99311.22;;;12.09;76.56
15817;BME280;8009;50.070;8.232;2023-11-21T01:43:42;99305.66;;;12.01;76.27
15817;BME280;8009;50.070;8.232;2023-11-21T01:46:10;99311.03;;;11.71;77.20
15817;BME280;8009;50.070;8.232;2023-11-21T01:48:41;99307.91;;;11.76;77.55
15817;BME280;8009;50.070;8.232;2023-11-21T01:51:11;99308.50;;;11.89;77.49
15817;BME280;8009;50.070;8.232;2023-11-21T01:53:40;99316.53;;;11.51;78.69
15817;BME280;8009;50.070;8.232;2023-11-21T01:56:09;99311.06;;;12.01;77.26
15817;BME280;8009;50.070;8.232;2023-11-21T01:58:41;99310.81;;;12.04;76.51
15817;BME280;8009;50.070;8.232;2023-11-21T02:01:12;99308.66;;;12.07;76.16
15817;BME280;8009;50.070;8.232;2023-11-21T02:03:40;99313.66;;;12.02;76.55
15817;BME280;8009;50.070;8.232;2023-11-21T02:06:08;99306.50;;;12.20;75.58
15817;BME280;8009;50.070;8.232;2023-11-21T02:08:37;99309.66;;;12.26;75.46
15817;BME280;8009;50.070;8.232;2023-11-21T02:11:08;99302.53;;;12.34;75.30
15817;BME280;8009;50.070;8.232;2023-11-21T02:13:40;99313.00;;;11.69;78.05
15817;BME280;8009;50.070;8.232;2023-11-21T02:16:11;99317.56;;;11.69;78.90
15817;BME280;8009;50.070;8.232;2023-11-21T02:18:40;99306.41;;;11.33;80.21
15817;BME280;8009;50.070;8.232;2023-11-21T02:21:08;99305.47;;;11.83;78.77
15817;BME280;8009;50.070;8.232;2023-11-21T02:23:39;99312.00;;;11.70;79.43
15817;BME280;8009;50.070;8.232;2023-11-21T02:26:09;99306.13;;;12.06;77.33
15817;BME280;8009;50.070;8.232;2023-11-21T02:28:39;99315.22;;;11.35;79.70
15817;BME280;8009;50.070;8.232;2023-11-21T02:31:07;99314.88;;;11.69;79.46
15817;BME280;8009;50.070;8.232;2023-11-21T02:33:33;99311.34;;;11.28;80.36
15817;BME280;8009;50.070;8.232;2023-11-21T02:36:02;99320.72;;;10.63;83.40
15817;BME280;8009;50.070;8.232;2023-11-21T02:38:31;99315.16;;;10.64;83.57
15817;BME280;8009;50.070;8.232;2023-11-21T02:41:01;99322.44;;;10.94;82.34
15817;BME280;8009;50.070;8.232;2023-11-21T02:43:30;99315.41;;;11.13;80.85
15817;BME280;8009;50.070;8.232;2023-11-21T02:45:58;99319.53;;;10.77;82.76
15817;BME280;8009;50.070;8.232;2023-11-21T02:48:26;99313.22;;;10.66;83.82
15817;BME280;8009;50.070;8.232;2023-11-21T02:50:56;99319.63;;;10.96;82.85
15817;BME280;8009;50.070;8.232;2023-11-21T02:53:24;99321.94;;;11.10;81.94
15817;BME280;8009;50.070;8.232;2023-11-21T02:55:52;99319.78;;;11.44;80.41
15817;BME280;8009;50.070;8.232;2023-11-21T02:58:23;99310.34;;;11.79;78.62
15817;BME280;8009;50.070;8.232;2023-11-21T03:00:51;99315.34;;;11.84;77.89
15817;BME280;8009;50.070;8.232;2023-11-21T03:03:20;99316.78;;;11.88;77.34
15817;BME280;8009;50.070;8.232;2023-11-21T03:05:49;99320.91;;;11.92;76.71
15817;BME280;8009;50.070;8.232;2023-11-21T03:08:17;99315.50;;;11.92;77.30
15817;BME280;8009;50.070;8.232;2023-11-21T03:10:45;99327.38;;;11.60;78.29
15817;BME280;8009;50.070;8.232;2023-11-21T03:13:14;99319.47;;;11.88;77.28
15817;BME280;8009;50.070;8.232;2023-11-21T03:15:45;99327.38;;;11.60;78.74
15817;BME280;8009;50.070;8.232;2023-11-21T03:18:13;99329.94;;;11.62;78.05
15817;BME280;8009;50.070;8.232;2023-11-21T03:20:43;99339.63;;;11.14;80.59
15817;BME280;8009;50.070;8.232;2023-11-21T03:23:12;99339.78;;;10.29;83.74
15817;BME280;8009;50.070;8.232;2023-11-21T03:25:40;99344.94;;;10.32;84.11
15817;BME280;8009;50.070;8.232;2023-11-21T03:28:09;99341.75;;;10.90;81.49
15817;BME280;8009;50.070;8.232;2023-11-21T03:30:37;99347.66;;;11.05;81.16
15817;BME280;8009;50.070;8.232;2023-11-21T03:33:08;99348.00;;;11.11;80.20
15817;BME280;8009;50.070;8.232;2023-11-21T03:35:36;99351.03;;;11.28;79.67
15817;BME280;8009;50.070;8.232;2023-11-21T03:38:07;99349.72;;;11.62;77.97
15817;BME280;8009;50.070;8.232;2023-11-21T03:40:35;99349.88;;;11.61;77.81
15817;BME280;8009;50.070;8.232;2023-11-21T03:43:05;99349.28;;;11.67;77.31
15817;BME280;8009;50.070;8.232;2023-11-21T03:45:34;99349.13;;;11.49;77.92
15817;BME280;8009;50.070;8.232;2023-11-21T03:48:02;99358.13;;;10.98;80.46
15817;BME280;8009;50.070;8.232;2023-11-21T03:50:33;99357.88;;;11.32;78.88
15817;BME280;8009;50.070;8.232;2023-11-21T03:53:01;99360.91;;;11.38;78.14
15817;BME280;8009;50.070;8.232;2023-11-21T03:55:30;99367.38;;;10.95;80.84
15817;BME280;8009;50.070;8.232;2023-11-21T03:57:59;99366.84;;;11.32;79.35
15817;BME280;8009;50.070;8.232;2023-11-21T04:00:28;99363.19;;;11.43;79.54
15817;BME280;8009;50.070;8.232;2023-11-21T04:02:56;99372.59;;;11.18;79.40
15817;BME280;8009;50.070;8.232;2023-11-21T04:05:25;99367.97;;;10.99;80.76
15817;BME280;8009;50.070;8.232;2023-11-21T04:07:55;99366.41;;;11.27;78.24
15817;BME280;8009;50.070;8.232;2023-11-21T04:10:24;99380.38;;;10.81;80.78
15817;BME280;8009;50.070;8.232;2023-11-21T04:12:52;99376.53;;;11.04;81.92
15817;BME280;8009;50.070;8.232;2023-11-21T04:15:20;99383.38;;;10.87;80.88
15817;BME280;8009;50.070;8.232;2023-11-21T04:17:49;99384.56;;;10.53;82.34
15817;BME280;8009;50.070;8.232;2023-11-21T04:20:17;99386.41;;;10.94;81.57
15817;BME280;8009;50.070;8.232;2023-11-21T04:22:45;99394.72;;;10.60;82.73
15817;BME280;8009;50.070;8.232;2023-11-21T04:25:17;99399.53;;;10.57;81.88
15817;BME280;8009;50.070;8.232;2023-11-21T04:27:45;99390.97;;;10.52;82.73
15817;BME280;8009;50.070;8.232;2023-11-21T04:30:14;99390.06;;;11.44;78.54
15817;BME280;8009;50.070;8.232;2023-11-21T04:32:43;99402.09;;;11.61;78.16
15817;BME280;8009;50.070;8.232;2023-11-21T04:35:11;99396.53;;;11.53;78.32
15817;BME280;8009;50.070;8.232;2023-11-21T04:37:40;99398.25;;;12.24;75.54
15817;BME280;8009;50.070;8.232;2023-11-21T04:40:09;99408.78;;;12.07;75.80
15817;BME280;8009;50.070;8.232;2023-11-21T04:42:40;99413.94;;;12.10;74.98
15817;BME280;8009;50.070;8.232;2023-11-21T04:45:09;99412.78;;;12.03;75.66
15817;BME280;8009;50.070;8.232;2023-11-21T04:47:37;99412.13;;;11.80;76.83
15817;BME280;8009;50.070;8.232;2023-11-21T04:50:06;99425.00;;;11.27;79.12
15817;BME280;8009;50.070;8.232;2023-11-21T04:52:34;99420.44;;;11.58;78.45
15817;BME280;8009;50.070;8.232;2023-11-21T04:55:06;99418.44;;;11.60;77.58
15817;BME280;8009;50.070;8.232;2023-11-21T04:57:37;99420.88;;;11.63;78.13
15817;BME280;8009;50.070;8.232;2023-11-21T05:00:10;99429.84;;;11.33;79.99
15817;BME280;8009;50.070;8.232;2023-11-21T05:02:39;99431.41;;;11.66;77.89
15817;BME280;8009;50.070;8.232;2023-11-21T05:05:09;99444.84;;;10.53;82.30
15817;BME280;8009;50.070;8.232;2023-11-21T05:07:38;99447.13;;;11.41;78.95
15817;BME280;8009;50.070;8.232;2023-11-21T05:10:08;99450.50;;;11.34;79.39
15817;BME280;8009;50.070;8.232;2023-11-21T05:12:40;99450.53;;;10.92;81.19
15817;BME280;8009;50.070;8.232;2023-11-21T05:15:14;99452.78;;;11.38;78.67
15817;BME280;8009;50.070;8.232;2023-11-21T05:17:43;99458.03;;;11.70;77.45
15817;BME280;8009;50.070;8.232;2023-11-21T05:20:35;99450.78;;;12.02;76.81
15817;BME280;8009;50.070;8.232;2023-11-21T05:32:40;99470.94;;;11.27;78.93
15817;BME280;8009;50.070;8.232;2023-11-21T05:35:11;99469.94;;;10.86;80.63
15817;BME280;8009;50.070;8.232;2023-11-21T05:37:41;99480.34;;;10.90;79.54
15817;BME280;8009;50.070;8.232;2023-11-21T05:40:10;99488.50;;;10.58;81.28
15817;BME280;8009;50.070;8.232;2023-11-21T05:42:39;99488.66;;;10.78;81.15
15817;BME280;8009;50.070;8.232;2023-11-21T05:45:08;99489.50;;;10.57;82.58
15817;BME280;8009;50.070;8.232;2023-11-21T05:47:41;99498.31;;;10.91;81.52
15817;BME280;8009;50.070;8.232;2023-11-21T05:50:12;99491.75;;;10.73;80.43
15817;BME280;8009;50.070;8.232;2023-11-21T05:52:43;99496.41;;;10.71;80.49
15817;BME280;8009;50.070;8.232;2023-11-21T05:55:11;99494.91;;;10.78;80.14
15817;BME280;8009;50.070;8.232;2023-11-21T05:57:42;99493.75;;;10.60;79.97
15817;BME280;8009;50.070;8.232;2023-11-21T06:00:12;99495.06;;;10.33;80.99
15817;BME280;8009;50.070;8.232;2023-11-21T06:02:48;99489.03;;;10.41;82.43
15817;BME280;8009;50.070;8.232;2023-11-21T06:05:18;99504.25;;;10.95;79.97
15817;BME280;8009;50.070;8.232;2023-11-21T06:07:48;99508.06;;;11.04;78.66
15817;BME280;8009;50.070;8.232;2023-11-21T06:10:19;99504.16;;;11.38;78.44
15817;BME280;8009;50.070;8.232;2023-11-21T06:12:49;99513.41;;;10.62;80.54
15817;BME280;8009;50.070;8.232;2023-11-21T06:15:17;99517.63;;;10.43;80.91
15817;BME280;8009;50.070;8.232;2023-11-21T06:17:51;99518.56;;;10.86;81.39
15817;BME280;8009;50.070;8.232;2023-11-21T06:20:20;99527.22;;;11.42;78.17
15817;BME280;8009;50.070;8.232;2023-11-21T06:22:50;99528.88;;;10.92;79.61
15817;BME280;8009;50.070;8.232;2023-11-21T06:25:19;99535.28;;;11.12;79.65
15817;BME280;8009;50.070;8.232;2023-11-21T06:27:48;99537.13;;;10.79;79.26
15817;BME280;8009;50.070;8.232;2023-11-21T06:30:17;99536.03;;;11.03;78.32
15817;BME280;8009;50.070;8.232;2023-11-21T06:32:45;99537.91;;;11.23;78.62
15817;BME280;8009;50.070;8.232;2023-11-21T06:35:16;99538.75;;;11.23;77.56
15817;BME280;8009;50.070;8.232;2023-11-21T06:37:45;99543.09;;;11.36;76.93
15817;BME280;8009;50.070;8.232;2023-11-21T06:40:14;99545.75;;;11.26;77.59
15817;BME280;8009;50.070;8.232;2023-11-21T06:42:43;99553.84;;;11.05;78.42
15817;BME280;8009;50.070;8.232;2023-11-21T06:45:12;99554.66;;;10.85;80.44
15817;BME280;8009;50.070;8.232;2023-11-21T06:47:40;99556.03;;;10.79;79.45
15817;BME280;8009;50.070;8.232;2023-11-21T06:50:09;99564.22;;;11.42;77.16
15817;BME280;8009;50.070;8.232;2023-11-21T06:52:40;99563.56;;;10.64;79.53
15817;BME280;8009;50.070;8.232;2023-11-21T06:55:08;99576.75;;;10.90;78.24
15817;BME280;8009;50.070;8.232;2023-11-21T06:57:37;99576.19;;;10.64;79.17
15817;BME280;8009;50.070;8.232;2023-11-21T07:00:06;99583.41;;;10.74;78.15
15817;BME280;8009;50.070;8.232;2023-11-21T07:02:35;99590.34;;;11.00;77.47
15817;BME280;8009;50.070;8.232;2023-11-21T07:05:04;99590.84;;;11.26;78.20
15817;BME280;8009;50.070;8.232;2023-11-21T07:15:16;99614.59;;;10.79;79.94
15817;BME280;8009;50.070;8.232;2023-11-21T07:18:09;99618.09;;;10.36;81.00
15817;BME280;8009;50.070;8.232;2023-11-21T07:20:44;99627.81;;;10.27;81.00
15817;BME280;8009;50.070;8.232;2023-11-21T07:23:14;99614.31;;;10.93;78.57
15817;BME280;8009;50.070;8.232;2023-11-21T07:25:43;99617.00;;;11.25;78.19
15817;BME280;8009;50.070;8.232;2023-11-21T07:28:12;99626.84;;;11.47;77.13
15817;BME280;8009;50.070;8.232;2023-11-21T07:30:43;99627.84;;;10.82;78.94
15817;BME280;8009;50.070;8.232;2023-11-21T07:33:12;99642.84;;;10.74;78.41
15817;BME280;8009;50.070;8.232;2023-11-21T07:35:40;99641.72;;;10.88;78.26
15817;BME280;8009;50.070;8.232;2023-11-21T07:38:08;99638.41;;;11.49;76.85
15817;BME280;8009;50.070;8.232;2023-11-21T07:40:37;99642.25;;;11.35;77.35
15817;BME280;8009;50.070;8.232;2023-11-21T07:43:02;99636.84;;;11.35;77.08
15817;BME280;8009;50.070;8.232;2023-11-21T07:45:31;99653.13;;;10.92;78.09
15817;BME280;8009;50.070;8.232;2023-11-21T07:48:02;99647.69;;;11.03;77.98
15817;BME280;8009;50.070;8.232;2023-11-21T07:50:32;99650.06;;;10.85;78.65
15817;BME280;8009;50.070;8.232;2023-11-21T07:53:00;99655.00;;;10.80;79.70
15817;BME280;8009;50.070;8.232;2023-11-21T07:55:30;99660.66;;;10.32;79.37
15817;BME280;8009;50.070;8.232;2023-11-21T07:57:59;99660.81;;;10.42;79.21
15817;BME280;8009;50.070;8.232;2023-11-21T08:00:29;99649.25;;;11.06;76.50
15817;BME280;8009;50.070;8.232;2023-11-21T08:02:58;99662.38;;;10.33;79.77
15817;BME280;8009;50.070;8.232;2023-11-21T08:05:29;99669.66;;;10.98;78.03
15817;BME280;8009;50.070;8.232;2023-11-21T08:07:57;99675.00;;;10.78;79.64
15817;BME280;8009;50.070;8.232;2023-11-21T08:13:42;99676.28;;;10.94;77.67
15817;BME280;8009;50.070;8.232;2023-11-21T08:16:11;99677.50;;;11.02;77.09
15817;BME280;8009;50.070;8.232;2023-11-21T08:18:39;99677.41;;;11.03;77.01
15817;BME280;8009;50.070;8.232;2023-11-21T08:21:12;99670.63;;;11.09;78.23
15817;BME280;8009;50.070;8.232;2023-11-21T08:23:41;99683.41;;;11.07;76.17
15817;BME280;8009;50.070;8.232;2023-11-21T08:26:09;99686.19;;;10.73;77.25
15817;BME280;8009;50.070;8.232;2023-11-21T08:28:38;99698.47;;;10.55;77.77
15817;BME280;8009;50.070;8.232;2023-11-21T08:31:07;99680.75;;;10.95;77.15
15817;BME280;8009;50.070;8.232;2023-11-21T08:33:36;99689.50;;;11.20;76.95
15817;BME280;8009;50.070;8.232;2023-11-21T08:36:07;99700.25;;;10.99;77.27
15817;BME280;8009;50.070;8.232;2023-11-21T08:38:39;99691.63;;;11.49;77.08
15817;BME280;8009;50.070;8.232;2023-11-21T08:41:07;99703.22;;;11.28;75.91
15817;BME280;8009;50.070;8.232;2023-11-21T08:43:36;99707.78;;;11.28;76.58
15817;BME280;8009;50.070;8.232;2023-11-21T08:46:05;99707.19;;;11.24;76.44
15817;BME280;8009;50.070;8.232;2023-11-21T08:48:36;99708.69;;;11.06;77.27
15817;BME280;8009;50.070;8.232;2023-11-21T08:51:09;99724.03;;;11.16;74.76
15817;BME280;8009;50.070;8.232;2023-11-21T08:53:40;99725.44;;;10.77;77.56
15817;BME280;8009;50.070;8.232;2023-11-21T08:56:12;99724.25;;;11.25;75.20
15817;BME280;8009;50.070;8.232;2023-11-21T08:58:41;99716.31;;;11.44;74.66
15817;BME280;8009;50.070;8.232;2023-11-21T09:01:09;99721.88;;;11.42;73.47
15817;BME280;8009;50.070;8.232;2023-11-21T09:03:38;99717.88;;;11.58;73.45
15817;BME280;8009;50.070;8.232;2023-11-21T09:06:07;99728.81;;;11.13;74.84
15817;BME280;8009;50.070;8.232;2023-11-21T09:08:36;99748.59;;;11.02;74.89
15817;BME280;8009;50.070;8.232;2023-11-21T09:11:07;99726.06;;;11.67;72.34
15817;BME280;8009;50.070;8.232;2023-11-21T09:13:36;99739.97;;;11.63;75.55
15817;BME280;8009;50.070;8.232;2023-11-21T09:16:05;99733.50;;;11.75;72.87
15817;BME280;8009;50.070;8.232;2023-11-21T09:18:33;99743.81;;;11.92;72.33
15817;BME280;8009;50.070;8.232;2023-11-21T09:21:02;99751.97;;;11.49;74.00
15817;BME280;8009;50.070;8.232;2023-11-21T09:23:31;99751.19;;;11.90;73.47
15817;BME280;8009;50.070;8.232;2023-11-21T09:25:59;99757.78;;;11.33;74.06
15817;BME280;8009;50.070;8.232;2023-11-21T09:28:30;99753.78;;;11.81;74.45
15817;BME280;8009;50.070;8.232;2023-11-21T09:31:01;99758.03;;;11.62;74.74
15817;BME280;8009;50.070;8.232;2023-11-21T09:33:33;99757.47;;;11.91;73.16
15817;BME280;8009;50.070;8.232;2023-11-21T09:36:04;99767.59;;;11.34;74.66
15817;BME280;8009;50.070;8.232;2023-11-21T09:38:34;99767.38;;;11.26;74.98
15817;BME280;8009;50.070;8.232;2023-11-21T09:41:06;99771.69;;;11.61;74.31
15817;BME280;8009;50.070;8.232;2023-11-21T09:43:46;99767.31;;;11.92;73.11
15817;BME280;8009;50.070;8.232;2023-11-21T09:46:18;99769.28;;;12.11;71.28
15817;BME280;8009;50.070;8.232;2023-11-21T09:48:51;99775.78;;;12.40;71.92
15817;BME280;8009;50.070;8.232;2023-11-21T09:51:24;99781.34;;;11.86;73.70
15817;BME280;8009;50.070;8.232;2023-11-21T09:53:57;99773.91;;;11.56;75.10
15817;BME280;8009;50.070;8.232;2023-11-21T09:56:27;99780.50;;;11.74;72.21
15817;BME280;8009;50.070;8.232;2023-11-21T09:58:59;99784.09;;;12.07;72.25
15817;BME280;8009;50.070;8.232;2023-11-21T10:01:32;99781.69;;;11.81;73.59
15817;BME280;8009;50.070;8.232;2023-11-21T10:04:01;99789.44;;;12.18;72.50
15817;BME280;8009;50.070;8.232;2023-11-21T10:06:31;99788.81;;;11.82;72.03
15817;BME280;8009;50.070;8.232;2023-11-21T10:09:21;99789.34;;;11.87;71.68
15817;BME280;8009;50.070;8.232;2023-11-21T10:11:56;99797.31;;;12.21;70.04
15817;BME280;8009;50.070;8.232;2023-11-21T10:14:29;99795.25;;;11.70;73.00
15817;BME280;8009;50.070;8.232;2023-11-21T10:16:59;99806.13;;;12.02;69.63
15817;BME280;8009;50.070;8.232;2023-11-21T10:19:27;99808.97;;;12.42;70.18
15817;BME280;8009;50.070;8.232;2023-11-21T10:21:58;99806.25;;;12.42;71.01
15817;BME280;8009;50.070;8.232;2023-11-21T10:24:29;99806.56;;;12.70;68.61
15817;BME280;8009;50.070;8.232;2023-11-21T10:26:57;99811.81;;;12.92;66.15
15817;BME280;8009;50.070;8.232;2023-11-21T10:29:31;99819.47;;;12.57;69.88
15817;BME280;8009;50.070;8.232;2023-11-21T10:32:02;99824.94;;;12.04;70.55
15817;BME280;8009;50.070;8.232;2023-11-21T10:34:31;99823.38;;;12.22;73.06
15817;BME280;8009;50.070;8.232;2023-11-21T10:37:11;99824.78;;;12.05;69.40
15817;BME280;8009;50.070;8.232;2023-11-21T10:39:42;99830.94;;;11.64;70.38
15817;BME280;8009;50.070;8.232;2023-11-21T10:42:10;99823.81;;;12.06;70.08
15817;BME280;8009;50.070;8.232;2023-11-21T10:44:42;99818.09;;;12.41;68.67
15817;BME280;8009;50.070;8.232;2023-11-21T10:47:10;99819.41;;;12.99;67.80
15817;BME280;8009;50.070;8.232;2023-11-21T10:49:40;99817.66;;;12.04;71.46
15817;BME280;8009;50.070;8.232;2023-11-21T10:52:09;99815.03;;;12.35;68.31
15817;BME280;8009;50.070;8.232;2023-11-21T10:54:42;99806.16;;;12.44;67.60
15817;BME280;8009;50.070;8.232;2023-11-21T10:57:13;99805.19;;;13.06;64.74
15817;BME280;8009;50.070;8.232;2023-11-21T10:59:49;99801.22;;;12.89;65.58
15817;BME280;8009;50.070;8.232;2023-11-21T11:02:22;99809.66;;;12.86;63.43
15817;BME280;8009;50.070;8.232;2023-11-21T11:04:54;99807.44;;;13.32;63.83
15817;BME280;8009;50.070;8.232;2023-11-21T11:07:26;99816.78;;;12.87;64.00
15817;BME280;8009;50.070;8.232;2023-11-21T11:09:58;99813.56;;;13.34;63.48
15817;BME280;8009;50.070;8.232;2023-11-21T11:12:29;99808.06;;;12.84;64.02
15817;BME280;8009;50.070;8.232;2023-11-21T11:15:00;99803.22;;;13.18;64.89
15817;BME280;8009;50.070;8.232;2023-11-21T11:17:58;99801.44;;;13.28;66.33
15817;BME280;8009;50.070;8.232;2023-11-21T11:20:32;99803.84;;;13.01;66.66
15817;BME280;8009;50.070;8.232;2023-11-21T11:23:29;99791.72;;;13.35;63.62
15817;BME280;8009;50.070;8.232;2023-11-21T11:36:03;99791.06;;;13.53;66.12
15817;BME280;8009;50.070;8.232;2023-11-21T11:44:48;99801.63;;;12.75;67.22
15817;BME280;8009;50.070;8.232;2023-11-21T11:47:22;99801.03;;;12.72;66.35
15817;BME280;8009;50.070;8.232;2023-11-21T11:50:01;99809.00;;;13.04;68.19
15817;BME280;8009;50.070;8.232;2023-11-21T11:52:34;99810.41;;;12.67;66.22
15817;BME280;8009;50.070;8.232;2023-11-21T11:55:07;99808.22;;;11.99;69.18
15817;BME280;8009;50.070;8.232;2023-11-21T11:57:37;99807.91;;;12.55;69.89
15817;BME280;8009;50.070;8.232;2023-11-21T12:00:20;99814.34;;;12.33;68.08
15817;BME280;8009;50.070;8.232;2023-11-21T12:03:09;99814.00;;;12.26;68.04
15817;BME280;8009;50.070;8.232;2023-11-21T12:05:40;99814.94;;;11.83;69.09
15817;BME280;8009;50.070;8.232;2023-11-21T12:08:11;99820.41;;;12.46;68.10
15817;BME280;8009;50.070;8.232;2023-11-21T12:10:42;99815.00;;;12.25;67.62
15817;BME280;8009;50.070;8.232;2023-11-21T12:13:11;99816.81;;;12.66;66.59
15817;BME280;8009;50.070;8.232;2023-11-21T12:15:42;99821.69;;;12.73;64.67
15817;BME280;8009;50.070;8.232;2023-11-21T12:18:11;99828.59;;;12.35;66.72
15817;BME280;8009;50.070;8.232;2023-11-21T12:20:58;99833.41;;;12.31;67.50
15817;BME280;8009;50.070;8.232;2023-11-21T12:23:27;99832.88;;;12.37;68.26
15817;BME280;8009;50.070;8.232;2023-11-21T12:25:55;99841.56;;;12.20;66.46
15817;BME280;8009;50.070;8.232;2023-11-21T12:28:36;99833.34;;;11.78;69.21
15817;BME280;8009;50.070;8.232;2023-11-21T12:31:07;99841.47;;;11.78;67.01
15817;BME280;8009;50.070;8.232;2023-11-21T12:33:36;99851.91;;;12.26;67.33
15817;BME280;8009;50.070;8.232;2023-11-21T12:36:05;99849.19;;;12.26;67.41
15817;BME280;8009;50.070;8.232;2023-11-21T12:38:36;99862.50;;;11.75;65.56
15817;BME280;8009;50.070;8.232;2023-11-21T12:41:05;99860.41;;;11.89;67.45
15817;BME280;8009;50.070;8.232;2023-11-21T12:43:34;99855.16;;;12.41;65.97
15817;BME280;8009;50.070;8.232;2023-11-21T12:46:08;99850.69;;;11.98;68.28
15817;BME280;8009;50.070;8.232;2023-11-21T12:48:39;99854.94;;;12.01;69.52
15817;BME280;8009;50.070;8.232;2023-11-21T12:51:08;99866.94;;;12.19;67.32
15817;BME280;8009;50.070;8.232;2023-11-21T12:53:38;99864.44;;;12.27;67.38
15817;BME280;8009;50.070;8.232;2023-11-21T12:56:07;99863.44;;;12.28;67.72
15817;BME280;8009;50.070;8.232;2023-11-21T12:58:37;99870.50;;;11.76;69.22
15817;BME280;8009;50.070;8.232;2023-11-21T13:01:09;99862.97;;;12.02;67.75
15817;BME280;8009;50.070;8.232;2023-11-21T13:03:38;99873.44;;;11.73;69.37
15817;BME280;8009;50.070;8.232;2023-11-21T13:06:10;99872.97;;;12.43;66.77
15817;BME280;8009;50.070;8.232;2023-11-21T13:08:39;99876.81;;;12.09;66.32
15817;BME280;8009;50.070;8.232;2023-11-21T13:11:07;99880.94;;;12.24;66.28
15817;BME280;8009;50.070;8.232;2023-11-21T13:13:36;99871.78;;;12.57;68.15
15817;BME280;8009;50.070;8.232;2023-11-21T13:16:05;99879.56;;;11.98;67.81
15817;BME280;8009;50.070;8.232;2023-11-21T13:18:37;99879.13;;;12.46;66.39
15817;BME280;8009;50.070;8.232;2023-11-21T13:21:08;99885.66;;;12.11;66.65
15817;BME280;8009;50.070;8.232;2023-11-21T13:23:39;99889.34;;;12.21;67.04
15817;BME280;8009;50.070;8.232;2023-11-21T13:26:09;99885.66;;;12.11;66.78
15817;BME280;8009;50.070;8.232;2023-11-21T13:28:37;99886.66;;;12.42;68.12
15817;BME280;8009;50.070;8.232;2023-11-21T13:31:11;99901.03;;;12.22;67.32
15817;BME280;8009;50.070;8.232;2023-11-21T13:33:48;99895.09;;;12.49;66.18
15817;BME280;8009;50.070;8.232;2023-11-21T13:36:21;99899.97;;;12.55;67.32
15817;BME280;8009;50.070;8.232;2023-11-21T13:38:49;99903.72;;;12.22;67.69
15817;BME280;8009;50.070;8.232;2023-11-21T13:41:19;99907.50;;;12.30;69.87
15817;BME280;8009;50.070;8.232;2023-11-21T13:43:53;99909.50;;;12.17;67.60
15817;BME280;8009;50.070;8.232;2023-11-21T13:46:29;99912.69;;;12.22;66.59
15817;BME280;8009;50.070;8.232;2023-11-21T13:49:05;99913.28;;;12.58;66.55
15817;BME280;8009;50.070;8.232;2023-11-21T13:51:35;99921.31;;;12.16;67.80
15817;BME280;8009;50.070;8.232;2023-11-21T13:54:07;99922.19;;;12.16;66.94
15817;BME280;8009;50.070;8.232;2023-11-21T13:56:36;99925.44;;;12.31;66.40
15817;BME280;8009;50.070;8.232;2023-11-21T13:59:06;99920.03;;;11.99;66.66
15817;BME280;8009;50.070;8.232;2023-11-21T14:01:44;99933.22;;;12.25;67.22
15817;BME280;8009;50.070;8.232;2023-11-21T14:04:24;99931.84;;;11.98;67.86
15817;BME280;8009;50.070;8.232;2023-11-21T14:07:20;99933.28;;;12.46;65.68
15817;BME280;8009;50.070;8.232;2023-11-21T14:09:58;99927.81;;;12.25;69.05
15817;BME280;8009;50.070;8.232;2023-11-21T14:12:26;99933.16;;;12.15;66.99
15817;BME280;8009;50.070;8.232;2023-11-21T14:14:59;99939.28;;;12.17;68.79
15817;BME280;8009;50.070;8.232;2023-11-21T14:17:28;99938.44;;;12.05;66.98
15817;BME280;8009;50.070;8.232;2023-11-21T14:20:27;99937.28;;;11.87;68.57